Stephan, South Dakota
Current Conditions -  °F | °C
As of 7:55 AM on Saturday 25 Oct 2014 (Local Time) from K9V9 Reporting Station
Clear Clear  
Wind Chill: 40°   Ceiling: Unl
Heat Index: 40°   Visibility: 10mi
Dew Point: 35°   Wind: 3mph
Humidity: 84%   Direction: 290°WNW
Pressure: 30.14"   Gusts: NA
Location:  44.26°N, 99.44°W
Report Text: K9V9 251255Z AUTO 29003KT 10SM CLR 04/02 A3014 RMK AO2 T00420017
Loading
Personal Weather Stations






























Interactive Weather Map
Tropical Storm Tracking
New forecast layout! Learn more

10-Day Weather Forecast

Advertisements
Track Severe Weather on mobile